JAL9112 ROAH-RJFF
Flight info
| Callsign | JAL9112 |
|---|---|
| Flight time | N/A |
| Altitude | 37000 |
| Route | AMAMI Y25 ISKUP |
| Aircraft | B763/H-SDE3FGHIM3RWXY/LB1 |
Departure
| Time | N/A |
|---|---|
| Airport | Naha International Airport (ROAH) |
Arrival
| Time | 2026-05-03 21:17 |
|---|---|
| Airport | Fukuoka Airport (RJFF) |
| Time | Latitude | Longitude | Altitude | Speed | Heading |
|---|---|---|---|---|---|
| 2026-05-03 20:15 | 27.10015 | 128.06071 | 27565 ft | 512 kts | 24° |
| 2026-05-03 20:15 | 27.13250 | 128.07976 | 28121 ft | 516 kts | 24° |
| 2026-05-03 20:15 | 27.16522 | 128.09901 | 28586 ft | 521 kts | 23° |
| 2026-05-03 20:15 | 27.19885 | 128.11885 | 29069 ft | 527 kts | 24° |
| 2026-05-03 20:16 | 27.23306 | 128.13905 | 29722 ft | 528 kts | 23° |
| 2026-05-03 20:16 | 27.26650 | 128.15880 | 30341 ft | 529 kts | 23° |
| 2026-05-03 20:16 | 27.29944 | 128.17830 | 31237 ft | 523 kts | 23° |
| 2026-05-03 20:16 | 27.33278 | 128.19801 | 32016 ft | 520 kts | 22° |
| 2026-05-03 20:17 | 27.36579 | 128.21756 | 32722 ft | 518 kts | 22° |
| 2026-05-03 20:17 | 27.39829 | 128.23680 | 33337 ft | 518 kts | 22° |
| 2026-05-03 20:17 | 27.43017 | 128.25571 | 34145 ft | 514 kts | 22° |
| 2026-05-03 20:17 | 27.46250 | 128.27489 | 34836 ft | 513 kts | 22° |
| 2026-05-03 20:18 | 27.49538 | 128.29437 | 35369 ft | 514 kts | 21° |
| 2026-05-03 20:18 | 27.52724 | 128.31331 | 36175 ft | 509 kts | 22° |
| 2026-05-03 20:18 | 27.55902 | 128.33218 | 36628 ft | 511 kts | 21° |
| 2026-05-03 20:18 | 27.59116 | 128.35130 | 37042 ft | 510 kts | 21° |
| 2026-05-03 20:19 | 27.62284 | 128.37015 | 36987 ft | 508 kts | 21° |
| 2026-05-03 20:19 | 27.68598 | 128.40775 | 37010 ft | 511 kts | 21° |
| 2026-05-03 20:20 | 27.74946 | 128.44560 | 37008 ft | 511 kts | 21° |
| 2026-05-03 20:20 | 27.81305 | 128.48358 | 37008 ft | 511 kts | 21° |
| 2026-05-03 20:21 | 27.87677 | 128.52168 | 37006 ft | 512 kts | 21° |
| 2026-05-03 20:21 | 27.94065 | 128.55995 | 37011 ft | 510 kts | 21° |
| 2026-05-03 20:22 | 28.00493 | 128.59848 | 37007 ft | 511 kts | 21° |
| 2026-05-03 20:22 | 28.06871 | 128.63676 | 37009 ft | 511 kts | 21° |
| 2026-05-03 20:23 | 28.13320 | 128.67555 | 36990 ft | 512 kts | 22° |
| 2026-05-03 20:23 | 28.19695 | 128.71391 | 36989 ft | 516 kts | 22° |
| 2026-05-03 20:24 | 28.26220 | 128.75326 | 36988 ft | 516 kts | 22° |
| 2026-05-03 20:24 | 28.32641 | 128.79204 | 36991 ft | 515 kts | 22° |
| 2026-05-03 20:25 | 28.39046 | 128.83077 | 36992 ft | 516 kts | 22° |
| 2026-05-03 20:25 | 28.45466 | 128.86963 | 36992 ft | 516 kts | 22° |
| 2026-05-03 20:26 | 28.51994 | 128.90920 | 36991 ft | 519 kts | 22° |
| 2026-05-03 20:26 | 28.58463 | 128.94847 | 36991 ft | 517 kts | 22° |
| 2026-05-03 20:27 | 28.64914 | 128.98770 | 36993 ft | 519 kts | 22° |
| 2026-05-03 20:27 | 28.71376 | 129.02702 | 36985 ft | 521 kts | 22° |
| 2026-05-03 20:28 | 28.78058 | 129.06779 | 36972 ft | 520 kts | 22° |
| 2026-05-03 20:28 | 28.84608 | 129.10779 | 36975 ft | 519 kts | 22° |
| 2026-05-03 20:29 | 28.91288 | 129.14861 | 36969 ft | 520 kts | 22° |
| 2026-05-03 20:29 | 28.97897 | 129.18909 | 36978 ft | 521 kts | 22° |
| 2026-05-03 20:30 | 29.04465 | 129.22937 | 36967 ft | 522 kts | 22° |
| 2026-05-03 20:30 | 29.10992 | 129.26945 | 36977 ft | 522 kts | 22° |
| 2026-05-03 20:31 | 29.17666 | 129.31050 | 36963 ft | 522 kts | 22° |
| 2026-05-03 20:31 | 29.24200 | 129.35074 | 36962 ft | 523 kts | 22° |
| 2026-05-03 20:32 | 29.30700 | 129.39084 | 36964 ft | 524 kts | 22° |
| 2026-05-03 20:32 | 29.37312 | 129.43169 | 36964 ft | 523 kts | 22° |
| 2026-05-03 20:33 | 29.43858 | 129.47220 | 36967 ft | 523 kts | 21° |
| 2026-05-03 20:33 | 29.50456 | 129.51306 | 36962 ft | 524 kts | 21° |
| 2026-05-03 20:34 | 29.57012 | 129.55376 | 36967 ft | 523 kts | 21° |
| 2026-05-03 20:34 | 29.63542 | 129.59433 | 36968 ft | 524 kts | 21° |
| 2026-05-03 20:35 | 29.70030 | 129.63472 | 36961 ft | 525 kts | 22° |
| 2026-05-03 20:35 | 29.76629 | 129.67584 | 36945 ft | 525 kts | 22° |
| 2026-05-03 20:36 | 29.83174 | 129.71670 | 36942 ft | 523 kts | 22° |
| 2026-05-03 20:36 | 29.89864 | 129.75851 | 36935 ft | 528 kts | 22° |
| 2026-05-03 20:37 | 29.96401 | 129.79924 | 36923 ft | 521 kts | 19° |
| 2026-05-03 20:37 | 29.99865 | 129.81578 | 36941 ft | 510 kts | 9° |
| 2026-05-03 20:37 | 30.03463 | 129.82585 | 36942 ft | 501 kts | 360° |
| 2026-05-03 20:38 | 30.10532 | 129.83490 | 36933 ft | 502 kts | 357° |
| 2026-05-03 20:38 | 30.17788 | 129.84311 | 36917 ft | 497 kts | 356° |
| 2026-05-03 20:39 | 30.24759 | 129.85072 | 36923 ft | 500 kts | 356° |
| 2026-05-03 20:39 | 30.31899 | 129.85847 | 36918 ft | 500 kts | 356° |
| 2026-05-03 20:40 | 30.38906 | 129.86609 | 36928 ft | 500 kts | 356° |
| 2026-05-03 20:40 | 30.46054 | 129.87386 | 36922 ft | 499 kts | 355° |
| 2026-05-03 20:41 | 30.53122 | 129.88155 | 36930 ft | 500 kts | 355° |
| 2026-05-03 20:41 | 30.60246 | 129.88931 | 36925 ft | 503 kts | 355° |
| 2026-05-03 20:42 | 30.67307 | 129.89703 | 36931 ft | 498 kts | 355° |
| 2026-05-03 20:42 | 30.74487 | 129.90483 | 36939 ft | 505 kts | 355° |
| 2026-05-03 20:43 | 30.81617 | 129.91269 | 36937 ft | 502 kts | 355° |
| 2026-05-03 20:43 | 30.88779 | 129.92050 | 36943 ft | 503 kts | 355° |
| 2026-05-03 20:44 | 30.96016 | 129.92850 | 36924 ft | 502 kts | 355° |
| 2026-05-03 20:44 | 31.03388 | 129.93657 | 36931 ft | 503 kts | 355° |
| 2026-05-03 20:45 | 31.10662 | 129.94457 | 36933 ft | 510 kts | 354° |
| 2026-05-03 20:45 | 31.17831 | 129.95254 | 36931 ft | 499 kts | 354° |
| 2026-05-03 20:46 | 31.25009 | 129.96042 | 36922 ft | 504 kts | 354° |
| 2026-05-03 20:46 | 31.32107 | 129.96735 | 36925 ft | 502 kts | 352° |
| 2026-05-03 20:47 | 31.39231 | 129.97290 | 36919 ft | 504 kts | 352° |
| 2026-05-03 20:47 | 31.46284 | 129.97850 | 36928 ft | 499 kts | 352° |
| 2026-05-03 20:48 | 31.53321 | 129.98407 | 36914 ft | 497 kts | 352° |
| 2026-05-03 20:48 | 31.60316 | 129.98964 | 36909 ft | 496 kts | 352° |
| 2026-05-03 20:49 | 31.67406 | 129.99521 | 36915 ft | 504 kts | 352° |
| 2026-05-03 20:49 | 31.74540 | 130.00099 | 36917 ft | 494 kts | 351° |
| 2026-05-03 20:50 | 31.81496 | 130.00648 | 36909 ft | 494 kts | 351° |
| 2026-05-03 20:50 | 31.88430 | 130.01209 | 36888 ft | 483 kts | 351° |
| 2026-05-03 20:50 | 31.91788 | 130.01485 | 36901 ft | 470 kts | 350° |
| 2026-05-03 20:51 | 31.95110 | 130.01749 | 36792 ft | 465 kts | 350° |
| 2026-05-03 20:51 | 31.98470 | 130.02005 | 36286 ft | 475 kts | 351° |
| 2026-05-03 20:51 | 32.01834 | 130.02269 | 35748 ft | 482 kts | 351° |
| 2026-05-03 20:51 | 32.05203 | 130.02544 | 35144 ft | 483 kts | 351° |
| 2026-05-03 20:52 | 32.08609 | 130.02818 | 34487 ft | 485 kts | 351° |
| 2026-05-03 20:52 | 32.11950 | 130.03088 | 33877 ft | 484 kts | 351° |
| 2026-05-03 20:52 | 32.15299 | 130.03360 | 33243 ft | 482 kts | 351° |
| 2026-05-03 20:52 | 32.18650 | 130.03627 | 32704 ft | 485 kts | 351° |
| 2026-05-03 20:53 | 32.22084 | 130.03902 | 32151 ft | 491 kts | 352° |
| 2026-05-03 20:53 | 32.25515 | 130.04175 | 31608 ft | 498 kts | 352° |
| 2026-05-03 20:53 | 32.28988 | 130.04456 | 31042 ft | 504 kts | 352° |
| 2026-05-03 20:53 | 32.32406 | 130.04733 | 30493 ft | 510 kts | 353° |
| 2026-05-03 20:54 | 32.36052 | 130.05032 | 29896 ft | 507 kts | 353° |
| 2026-05-03 20:54 | 32.43113 | 130.05608 | 28745 ft | 505 kts | 354° |
| 2026-05-03 20:54 | 32.46668 | 130.05899 | 28178 ft | 501 kts | 354° |
| 2026-05-03 20:55 | 32.50221 | 130.06189 | 27588 ft | 497 kts | 353° |
| 2026-05-03 20:55 | 32.53766 | 130.06479 | 26991 ft | 491 kts | 353° |
| 2026-05-03 20:55 | 32.57184 | 130.06753 | 26429 ft | 486 kts | 352° |
| 2026-05-03 20:55 | 32.60682 | 130.06703 | 25824 ft | 467 kts | 342° |
| 2026-05-03 20:56 | 32.63994 | 130.06050 | 25271 ft | 454 kts | 336° |
| 2026-05-03 20:56 | 32.67137 | 130.05301 | 24732 ft | 449 kts | 335° |
| 2026-05-03 20:56 | 32.70207 | 130.04544 | 24196 ft | 443 kts | 335° |
| 2026-05-03 20:56 | 32.73249 | 130.03781 | 23681 ft | 438 kts | 335° |
| 2026-05-03 20:57 | 32.76259 | 130.03020 | 23162 ft | 439 kts | 335° |
| 2026-05-03 20:57 | 32.79300 | 130.02248 | 22724 ft | 433 kts | 335° |
| 2026-05-03 20:57 | 32.82263 | 130.01500 | 22361 ft | 429 kts | 334° |
| 2026-05-03 20:57 | 32.85190 | 130.00748 | 21860 ft | 433 kts | 335° |
| 2026-05-03 20:58 | 32.88192 | 129.99983 | 21347 ft | 431 kts | 335° |
| 2026-05-03 20:58 | 32.91090 | 129.99246 | 20850 ft | 426 kts | 334° |
| 2026-05-03 20:58 | 32.93988 | 129.98506 | 20346 ft | 424 kts | 334° |
| 2026-05-03 20:58 | 32.96858 | 129.97775 | 19837 ft | 420 kts | 334° |
| 2026-05-03 20:59 | 32.99733 | 129.97038 | 19327 ft | 417 kts | 334° |
| 2026-05-03 20:59 | 33.02589 | 129.96310 | 18790 ft | 413 kts | 335° |
| 2026-05-03 20:59 | 33.05398 | 129.95590 | 18275 ft | 410 kts | 335° |
| 2026-05-03 20:59 | 33.08217 | 129.94867 | 17776 ft | 407 kts | 335° |
| 2026-05-03 21:00 | 33.10985 | 129.94159 | 17290 ft | 402 kts | 335° |
| 2026-05-03 21:00 | 33.11911 | 129.93921 | 17123 ft | 400 kts | 335° |
| 2026-05-03 21:00 | 33.16406 | 129.92770 | 16315 ft | 391 kts | 335° |
| 2026-05-03 21:00 | 33.19084 | 129.92082 | 15928 ft | 385 kts | 336° |
| 2026-05-03 21:01 | 33.21731 | 129.91704 | 15678 ft | 393 kts | 348° |
| 2026-05-03 21:01 | 33.24541 | 129.91882 | 15405 ft | 400 kts | 352° |
| 2026-05-03 21:01 | 33.27342 | 129.92053 | 15304 ft | 413 kts | 352° |
| 2026-05-03 21:01 | 33.30313 | 129.92215 | 15322 ft | 427 kts | 352° |
| 2026-05-03 21:02 | 33.33266 | 129.92368 | 15295 ft | 413 kts | 352° |
| 2026-05-03 21:02 | 33.36084 | 129.92551 | 15118 ft | 399 kts | 352° |
| 2026-05-03 21:02 | 33.38831 | 129.92734 | 14830 ft | 388 kts | 352° |
| 2026-05-03 21:02 | 33.41526 | 129.92905 | 14306 ft | 384 kts | 352° |
| 2026-05-03 21:03 | 33.44197 | 129.93082 | 13824 ft | 379 kts | 353° |
| 2026-05-03 21:03 | 33.46829 | 129.93236 | 13315 ft | 376 kts | 353° |
| 2026-05-03 21:03 | 33.49457 | 129.93806 | 12964 ft | 382 kts | 8° |
| 2026-05-03 21:03 | 33.52027 | 129.94937 | 12383 ft | 383 kts | 12° |
| 2026-05-03 21:04 | 33.54560 | 129.96063 | 12008 ft | 375 kts | 12° |
| 2026-05-03 21:04 | 33.57043 | 129.97159 | 11528 ft | 370 kts | 12° |
| 2026-05-03 21:04 | 33.59510 | 129.98235 | 11105 ft | 364 kts | 12° |
| 2026-05-03 21:04 | 33.61869 | 129.99252 | 10642 ft | 359 kts | 12° |
| 2026-05-03 21:05 | 33.64207 | 130.00262 | 10617 ft | 340 kts | 12° |
| 2026-05-03 21:05 | 33.66372 | 130.01215 | 10597 ft | 324 kts | 12° |
| 2026-05-03 21:05 | 33.68437 | 130.02139 | 10576 ft | 310 kts | 12° |
| 2026-05-03 21:05 | 33.70468 | 130.03070 | 10441 ft | 301 kts | 12° |
| 2026-05-03 21:06 | 33.72440 | 130.03964 | 10100 ft | 301 kts | 12° |
| 2026-05-03 21:06 | 33.74388 | 130.04835 | 9900 ft | 295 kts | 12° |
| 2026-05-03 21:06 | 33.76326 | 130.05707 | 9594 ft | 293 kts | 12° |
| 2026-05-03 21:06 | 33.78149 | 130.06871 | 9221 ft | 306 kts | 33° |
| 2026-05-03 21:07 | 33.79532 | 130.08846 | 9001 ft | 313 kts | 58° |
| 2026-05-03 21:07 | 33.80198 | 130.11377 | 8636 ft | 319 kts | 80° |
| 2026-05-03 21:07 | 33.80452 | 130.14052 | 8299 ft | 320 kts | 82° |
| 2026-05-03 21:07 | 33.80690 | 130.16710 | 8028 ft | 317 kts | 82° |
| 2026-05-03 21:08 | 33.80917 | 130.19369 | 7746 ft | 315 kts | 82° |
| 2026-05-03 21:08 | 33.81140 | 130.21985 | 7460 ft | 312 kts | 82° |
| 2026-05-03 21:08 | 33.81324 | 130.24602 | 7118 ft | 312 kts | 90° |
| 2026-05-03 21:08 | 33.80846 | 130.27219 | 6731 ft | 311 kts | 117° |
| 2026-05-03 21:09 | 33.79537 | 130.29297 | 6466 ft | 299 kts | 141° |
| 2026-05-03 21:09 | 33.77893 | 130.30850 | 6050 ft | 293 kts | 158° |
| 2026-05-03 21:09 | 33.76036 | 130.31914 | 5605 ft | 287 kts | 162° |
| 2026-05-03 21:09 | 33.74186 | 130.32925 | 5053 ft | 284 kts | 161° |
| 2026-05-03 21:10 | 33.72340 | 130.33844 | 4474 ft | 280 kts | 166° |
| 2026-05-03 21:10 | 33.70504 | 130.34674 | 3918 ft | 272 kts | 166° |
| 2026-05-03 21:10 | 33.68760 | 130.35469 | 2916 ft | 270 kts | 166° |
| 2026-05-03 21:10 | 33.67075 | 130.36241 | 2377 ft | 247 kts | 165° |
| 2026-05-03 21:11 | 33.65528 | 130.36954 | 2103 ft | 221 kts | 165° |
| 2026-05-03 21:11 | 33.64217 | 130.37585 | 2077 ft | 186 kts | 166° |
| 2026-05-03 21:11 | 33.63053 | 130.38173 | 2000 ft | 171 kts | 166° |
| 2026-05-03 21:11 | 33.61935 | 130.38748 | 2029 ft | 176 kts | 166° |
| 2026-05-03 21:12 | 33.60849 | 130.39311 | 1940 ft | 162 kts | 166° |
| 2026-05-03 21:12 | 33.59830 | 130.39861 | 1665 ft | 158 kts | 166° |
| 2026-05-03 21:12 | 33.58898 | 130.40515 | 1437 ft | 158 kts | 149° |
| 2026-05-03 21:12 | 33.58078 | 130.41324 | 1487 ft | 152 kts | 149° |
| 2026-05-03 21:13 | 33.57218 | 130.42158 | 1556 ft | 165 kts | 148° |
| 2026-05-03 21:13 | 33.56347 | 130.43010 | 1480 ft | 160 kts | 147° |
| 2026-05-03 21:13 | 33.55485 | 130.43845 | 1499 ft | 154 kts | 148° |
| 2026-05-03 21:13 | 33.54660 | 130.44676 | 1495 ft | 157 kts | 145° |
| 2026-05-03 21:14 | 33.53797 | 130.45526 | 1503 ft | 159 kts | 149° |
| 2026-05-03 21:14 | 33.52946 | 130.46364 | 1479 ft | 158 kts | 147° |
| 2026-05-03 21:14 | 33.52201 | 130.47366 | 1409 ft | 168 kts | 116° |
| 2026-05-03 21:14 | 33.52128 | 130.48723 | 1161 ft | 164 kts | 64° |
| 2026-05-03 21:15 | 33.52881 | 130.49510 | 996 ft | 132 kts | 349° |
| 2026-05-03 21:15 | 33.53598 | 130.48973 | 941 ft | 123 kts | 307° |
| 2026-05-03 21:15 | 33.54250 | 130.48279 | 970 ft | 133 kts | 320° |
| 2026-05-03 21:15 | 33.55077 | 130.47653 | 735 ft | 142 kts | 319° |
| 2026-05-03 21:16 | 33.55856 | 130.46995 | 598 ft | 129 kts | 322° |
| 2026-05-03 21:16 | 33.56620 | 130.46446 | 297 ft | 128 kts | 322° |
| 2026-05-03 21:16 | 33.57393 | 130.45889 | 97 ft | 133 kts | 326° |
| 2026-05-03 21:16 | 33.58170 | 130.45355 | 45 ft | 119 kts | 328° |
| 2026-05-03 21:17 | 33.58731 | 130.44974 | 44 ft | 60 kts | 328° |
| 2026-05-03 21:17 | 33.58899 | 130.44861 | 44 ft | 31 kts | 331° |
| 2026-05-03 21:17 | 33.59163 | 130.44769 | 44 ft | 9 kts | 358° |
| 2026-05-03 21:17 | 33.59241 | 130.44768 | 44 ft | 12 kts | 358° |
| 2026-05-03 21:18 | 33.59338 | 130.44768 | 44 ft | 15 kts | 355° |
| 2026-05-03 21:18 | 33.59444 | 130.44717 | 44 ft | 17 kts | 330° |
| 2026-05-03 21:18 | 33.59558 | 130.44638 | 44 ft | 20 kts | 329° |
| 2026-05-03 21:18 | 33.59651 | 130.44575 | 44 ft | 10 kts | 339° |
| 2026-05-03 21:19 | 33.59724 | 130.44594 | 44 ft | 12 kts | 28° |
| 2026-05-03 21:19 | 33.59777 | 130.44664 | 44 ft | 5 kts | 59° |
| 2026-05-03 21:19 | 33.59792 | 130.44696 | 44 ft | 0 kts | 60° |